createdAt,value
2023-08-29T00:00:48.856Z,0.00
2023-08-29T00:01:48.899Z,0.00
2023-08-29T00:02:48.810Z,0.00
2023-08-29T00:03:48.843Z,0.00
2023-08-29T00:04:48.812Z,0.00
2023-08-29T00:05:51.805Z,0.00
2023-08-29T00:06:48.776Z,0.00
2023-08-29T00:07:48.768Z,0.00
2023-08-29T00:08:48.737Z,0.00
2023-08-29T00:09:48.721Z,0.00
2023-08-29T00:10:48.751Z,0.00
2023-08-29T00:11:48.729Z,0.00
2023-08-29T00:12:48.708Z,0.00
2023-08-29T00:14:00.754Z,0.00
2023-08-29T00:14:48.697Z,0.00
2023-08-29T00:15:57.805Z,0.00
2023-08-29T00:18:34.676Z,0.00
2023-08-29T00:19:29.310Z,0.00
2023-08-29T00:20:48.356Z,0.00
2023-08-29T00:21:29.321Z,0.00
2023-08-29T00:22:29.298Z,0.00
2023-08-29T00:23:29.285Z,0.00
2023-08-29T00:26:08.600Z,0.00
2023-08-29T00:27:08.365Z,0.00
2023-08-29T00:28:08.386Z,0.00
2023-08-29T00:29:08.324Z,0.00
2023-08-29T00:30:08.335Z,0.00
2023-08-29T00:31:08.393Z,0.00
2023-08-29T00:32:08.289Z,0.00
2023-08-29T00:33:08.302Z,0.00
2023-08-29T00:34:08.287Z,0.00
2023-08-29T00:35:18.857Z,0.00
2023-08-29T00:37:28.176Z,0.00
2023-08-29T00:38:28.171Z,0.00
2023-08-29T00:39:38.491Z,0.00
2023-08-29T00:40:28.155Z,0.00
2023-08-29T00:41:28.133Z,0.00
2023-08-29T00:42:28.125Z,0.00
2023-08-29T00:43:28.140Z,0.00
2023-08-29T00:44:28.094Z,0.00
2023-08-29T00:45:28.092Z,0.00
2023-08-29T00:46:28.110Z,0.00
2023-08-29T00:47:28.105Z,0.00
2023-08-29T00:48:28.091Z,0.00
2023-08-29T00:49:28.045Z,0.00
2023-08-29T00:50:31.049Z,0.00
2023-08-29T00:51:28.038Z,0.00
2023-08-29T00:53:28.000Z,0.00
2023-08-29T00:54:28.026Z,0.00
2023-08-29T00:55:27.982Z,0.00
2023-08-29T00:56:28.011Z,0.00
2023-08-29T00:57:27.992Z,0.00
2023-08-29T00:58:27.943Z,0.00
2023-08-29T00:59:27.944Z,0.00
2023-08-29T01:00:27.940Z,0.00
2023-08-29T01:01:38.537Z,0.00
2023-08-29T01:02:27.896Z,0.00
2023-08-29T01:04:55.515Z,0.00
2023-08-29T01:07:52.526Z,0.00
2023-08-29T01:08:52.453Z,0.00
2023-08-29T01:09:52.440Z,0.00
2023-08-29T01:10:52.492Z,0.00
2023-08-29T01:11:52.442Z,0.00
2023-08-29T01:12:52.420Z,0.00
2023-08-29T01:17:29.908Z,0.00
2023-08-29T01:18:39.198Z,0.00
2023-08-29T01:19:37.933Z,0.00
2023-08-29T01:20:39.524Z,0.00
2023-08-29T01:21:29.815Z,0.00
2023-08-29T01:22:41.965Z,0.00
2023-08-29T01:23:29.767Z,0.00
2023-08-29T01:26:25.285Z,0.00
2023-08-29T01:27:35.379Z,0.00
2023-08-29T01:28:25.237Z,0.00
2023-08-29T01:29:25.216Z,0.00
2023-08-29T01:31:52.767Z,0.00
2023-08-29T01:34:36.438Z,0.00
2023-08-29T01:37:06.040Z,0.00
2023-08-29T01:38:06.326Z,0.00
2023-08-29T01:39:05.996Z,0.00
2023-08-29T01:40:14.304Z,0.00
2023-08-29T01:41:05.974Z,0.00
2023-08-29T01:42:06.033Z,0.00
2023-08-29T01:43:05.965Z,0.00
2023-08-29T01:44:15.783Z,0.00
2023-08-29T01:45:05.952Z,0.00
2023-08-29T01:46:05.950Z,0.00
2023-08-29T01:47:05.921Z,0.00
2023-08-29T01:48:06.436Z,0.00
2023-08-29T01:49:05.873Z,0.00
2023-08-29T01:50:08.874Z,0.00
2023-08-29T01:51:05.864Z,0.00
2023-08-29T01:52:05.843Z,0.00
2023-08-29T01:56:07.774Z,0.00
2023-08-29T01:57:18.566Z,0.00
2023-08-29T01:58:07.818Z,0.00
2023-08-29T03:21:56.683Z,0.00
2023-08-29T03:22:56.652Z,0.00
2023-08-29T03:23:56.620Z,0.00
2023-08-29T03:24:56.614Z,0.00
2023-08-29T03:25:56.609Z,0.00
2023-08-29T03:26:56.582Z,0.00
2023-08-29T03:27:56.572Z,0.00
2023-08-29T03:28:56.580Z,0.00
2023-08-29T03:29:56.583Z,0.00
2023-08-29T03:30:56.562Z,0.00
2023-08-29T03:31:56.540Z,0.00
2023-08-29T03:32:56.624Z,0.00
2023-08-29T03:33:56.529Z,0.00
2023-08-29T03:34:59.506Z,0.00
2023-08-29T03:35:56.500Z,0.00
2023-08-29T03:36:56.484Z,0.00
2023-08-29T03:37:56.482Z,0.00
2023-08-29T03:38:56.488Z,0.00
2023-08-29T03:39:56.473Z,0.00
2023-08-29T03:40:56.466Z,0.00
2023-08-29T03:41:56.444Z,0.00
2023-08-29T03:42:56.435Z,0.00
2023-08-29T03:43:56.454Z,0.00
2023-08-29T03:44:56.417Z,0.00
2023-08-29T03:45:56.399Z,0.00
2023-08-29T03:46:56.377Z,0.00
2023-08-29T03:47:56.462Z,0.00
2023-08-29T03:48:56.353Z,0.00
2023-08-29T03:49:59.374Z,0.00
2023-08-29T03:50:56.383Z,0.00
2023-08-29T03:51:56.325Z,0.00
2023-08-29T03:52:56.328Z,0.00
2023-08-29T03:53:56.345Z,0.00
2023-08-29T03:54:56.380Z,0.00
2023-08-29T03:55:56.300Z,0.00
2023-08-29T03:56:56.267Z,0.00
2023-08-29T03:57:56.265Z,0.00
2023-08-29T03:58:57.232Z,0.00
2023-08-29T03:59:56.266Z,0.00
2023-08-29T04:00:56.276Z,0.00
2023-08-29T04:01:56.246Z,0.00
2023-08-29T04:02:56.274Z,0.00
2023-08-29T04:03:56.441Z,0.00
2023-08-29T04:04:59.305Z,0.00
2023-08-29T04:05:56.207Z,0.00
2023-08-29T04:06:56.184Z,0.00
2023-08-29T04:07:56.184Z,0.00
2023-08-29T04:08:56.172Z,0.00
2023-08-29T04:09:56.145Z,0.00
2023-08-29T04:10:56.132Z,0.00
2023-08-29T04:11:56.152Z,0.00
2023-08-29T04:12:56.119Z,0.00
2023-08-29T04:13:56.121Z,0.00
2023-08-29T04:14:56.079Z,1.00
2023-08-29T04:15:56.094Z,1.00
2023-08-29T04:16:56.033Z,1.00
2023-08-29T04:17:56.076Z,1.00
2023-08-29T04:18:56.075Z,0.00
2023-08-29T04:19:59.022Z,2.00
2023-08-29T04:20:56.014Z,1.00
2023-08-29T04:21:56.004Z,1.00
2023-08-29T04:22:55.990Z,1.00
2023-08-29T04:23:55.946Z,2.00
2023-08-29T04:24:55.943Z,1.00
2023-08-29T04:25:55.928Z,4.00
2023-08-29T04:26:55.988Z,5.00
2023-08-29T04:27:55.909Z,6.00
2023-08-29T04:28:55.896Z,9.00
2023-08-29T04:29:55.910Z,15.00
2023-08-29T04:30:55.908Z,18.00
2023-08-29T05:06:02.640Z,345.00
2023-08-29T05:06:55.821Z,317.00
2023-08-29T05:09:55.646Z,417.00
2023-08-29T05:10:29.298Z,392.00
2023-08-29T05:12:59.953Z,495.00
2023-08-29T05:13:59.441Z,472.00
2023-08-29T05:14:59.397Z,516.00
2023-08-29T05:16:40.618Z,545.00
2023-08-29T05:23:02.833Z,806.00
2023-08-29T05:30:27.842Z,1180.00
2023-08-29T05:31:43.657Z,1212.00
2023-08-29T05:32:43.339Z,1253.00
2023-08-29T05:33:43.276Z,1257.00
2023-08-29T05:34:43.276Z,1099.00
2023-08-29T05:35:43.276Z,1106.00
2023-08-29T05:36:43.267Z,1191.00
2023-08-29T05:37:43.254Z,1268.00
2023-08-29T05:38:43.225Z,1178.00
2023-08-29T05:39:43.202Z,1239.00
2023-08-29T05:40:43.208Z,1079.00
2023-08-29T05:41:43.230Z,1099.00
2023-08-29T05:42:43.204Z,999.00
2023-08-29T05:43:43.167Z,925.00
2023-08-29T05:44:46.190Z,1054.00
2023-08-29T05:45:43.160Z,1136.00
2023-08-29T05:46:43.252Z,1077.00
2023-08-29T05:47:43.153Z,1077.00
2023-08-29T05:48:43.130Z,924.00
2023-08-29T05:49:43.126Z,1024.00
2023-08-29T05:50:43.120Z,977.00
2023-08-29T05:51:43.116Z,970.00
2023-08-29T05:52:43.106Z,1095.00
2023-08-29T05:54:43.068Z,1172.00
2023-08-29T05:55:43.068Z,1310.00
2023-08-29T05:56:43.062Z,1300.00
2023-08-29T05:57:43.046Z,1313.00
2023-08-29T05:58:43.010Z,1424.00
2023-08-29T05:59:45.999Z,1479.00
2023-08-29T06:00:43.030Z,1476.00
2023-08-29T06:01:42.993Z,1509.00
2023-08-29T06:02:43.054Z,1543.00
2023-08-29T06:03:43.005Z,1522.00
2023-08-29T06:04:42.965Z,1427.00
2023-08-29T06:05:43.024Z,1358.00
2023-08-29T06:06:42.950Z,1323.00
2023-08-29T06:07:42.931Z,1267.00
2023-08-29T06:08:42.926Z,1243.00
2023-08-29T06:09:42.965Z,1218.00
2023-08-29T06:10:42.894Z,1193.00
2023-08-29T06:11:42.897Z,1132.00
2023-08-29T06:12:42.901Z,1085.00
2023-08-29T06:13:42.895Z,1061.00
2023-08-29T06:14:45.853Z,1056.00
2023-08-29T06:16:43.047Z,1145.00
2023-08-29T06:17:42.917Z,1205.00
2023-08-29T06:18:42.828Z,1233.00
2023-08-29T06:19:42.817Z,1229.00
2023-08-29T06:20:42.781Z,1280.00
2023-08-29T06:21:42.820Z,1192.00
2023-08-29T06:22:42.784Z,1031.00
2023-08-29T06:23:42.764Z,932.00
2023-08-29T06:24:42.744Z,949.00
2023-08-29T06:25:43.002Z,952.00
2023-08-29T06:26:42.722Z,930.00
2023-08-29T06:27:42.719Z,970.00
2023-08-29T06:28:42.722Z,1009.00
2023-08-29T06:29:45.716Z,1043.00
2023-08-29T06:30:42.717Z,1142.00
2023-08-29T06:31:42.670Z,1251.00
2023-08-29T06:32:42.689Z,1425.00
2023-08-29T06:33:42.672Z,1565.00
2023-08-29T06:34:42.631Z,1661.00
2023-08-29T06:35:42.627Z,1780.00
2023-08-29T06:36:42.681Z,1894.00
2023-08-29T06:37:42.626Z,1990.00
2023-08-29T06:38:42.593Z,2118.00
2023-08-29T06:39:42.584Z,2232.00
2023-08-29T06:40:42.577Z,2292.00
2023-08-29T06:41:42.576Z,2222.00
2023-08-29T06:42:42.573Z,2191.00
2023-08-29T06:43:42.542Z,1982.00
2023-08-29T06:44:45.573Z,1718.00
2023-08-29T06:45:42.542Z,1580.00
2023-08-29T06:46:42.614Z,1591.00
2023-08-29T06:47:42.572Z,1647.00
2023-08-29T06:48:42.527Z,1738.00
2023-08-29T06:49:42.501Z,1738.00
2023-08-29T06:50:42.538Z,1823.00
2023-08-29T06:51:42.472Z,1932.00
2023-08-29T06:52:42.488Z,2028.00
2023-08-29T06:53:42.462Z,2139.00
2023-08-29T06:54:42.447Z,2148.00
2023-08-29T06:55:42.416Z,2238.00
2023-08-29T06:56:42.427Z,2316.00
2023-08-29T06:57:42.415Z,2363.00
2023-08-29T06:58:42.389Z,2477.00
2023-08-29T06:59:45.404Z,2698.00
2023-08-29T07:00:42.404Z,3096.00
2023-08-29T07:01:42.368Z,3337.00
2023-08-29T07:02:42.422Z,3521.00
2023-08-29T07:03:42.410Z,3598.00
2023-08-29T07:04:42.348Z,3676.00
2023-08-29T07:05:42.306Z,3628.00
2023-08-29T07:06:42.314Z,3486.00
2023-08-29T07:07:42.310Z,3308.00
2023-08-29T07:08:42.295Z,3227.00
2023-08-29T07:09:42.280Z,3191.00
2023-08-29T07:10:42.285Z,3276.00
2023-08-29T07:11:42.259Z,3412.00
2023-08-29T07:12:42.242Z,3547.00
2023-08-29T07:13:42.239Z,3703.00
2023-08-29T07:14:45.211Z,4056.00
2023-08-29T07:16:44.285Z,4904.00
2023-08-29T07:17:44.412Z,4916.00
2023-08-29T07:18:42.195Z,4974.00
2023-08-29T07:19:42.182Z,5070.00
2023-08-29T07:20:42.180Z,5087.00
2023-08-29T07:21:42.166Z,4991.00
2023-08-29T07:22:42.165Z,4909.00
2023-08-29T07:23:42.135Z,4839.00
2023-08-29T07:24:42.108Z,4784.00
2023-08-29T07:25:42.132Z,4692.00
2023-08-29T07:26:42.086Z,4549.00
2023-08-29T07:28:42.093Z,4049.00
2023-08-29T07:29:45.057Z,3793.00
2023-08-29T07:30:42.094Z,3608.00
2023-08-29T07:31:42.041Z,3467.00
2023-08-29T07:32:42.077Z,3369.00
2023-08-29T07:33:42.030Z,3263.00
2023-08-29T07:34:42.217Z,3174.00
2023-08-29T07:35:42.025Z,3092.00
2023-08-29T07:36:41.984Z,3038.00
2023-08-29T07:37:41.993Z,3021.00
2023-08-29T07:38:41.968Z,2982.00
2023-08-29T07:39:41.969Z,2857.00
2023-08-29T07:40:41.964Z,2730.00
2023-08-29T07:41:41.957Z,2671.00
2023-08-29T07:43:41.950Z,2373.00
2023-08-29T07:44:44.918Z,2178.00
2023-08-29T07:45:41.897Z,2019.00
2023-08-29T07:46:50.221Z,1834.00
2023-08-29T07:47:42.961Z,1903.00
2023-08-29T07:48:41.852Z,2034.00
2023-08-29T07:49:41.846Z,2144.00
2023-08-29T07:50:41.863Z,2109.00
2023-08-29T07:51:41.854Z,1965.00
2023-08-29T07:53:41.896Z,1875.00
2023-08-29T07:54:41.805Z,1852.00
2023-08-29T07:55:41.806Z,1692.00
2023-08-29T07:56:41.774Z,1581.00
2023-08-29T07:57:41.808Z,1499.00
2023-08-29T07:58:41.748Z,1531.00
2023-08-29T07:59:44.745Z,1594.00
2023-08-29T08:00:41.746Z,1552.00
2023-08-29T08:01:48.779Z,1483.00
2023-08-29T08:02:41.759Z,1537.00
2023-08-29T08:03:41.748Z,1685.00
2023-08-29T08:04:41.687Z,1907.00
2023-08-29T08:05:41.696Z,2142.00
2023-08-29T08:06:41.696Z,2278.00
2023-08-29T08:07:41.690Z,2134.00
2023-08-29T08:08:46.724Z,2026.00
2023-08-29T08:09:41.658Z,2084.00
2023-08-29T08:10:41.630Z,1768.00
2023-08-29T08:11:41.629Z,1558.00
2023-08-29T08:12:41.623Z,1572.00
2023-08-29T08:14:44.632Z,1412.00
2023-08-29T08:15:41.581Z,1252.00
2023-08-29T08:16:41.812Z,1095.00
2023-08-29T08:17:41.654Z,1229.00
2023-08-29T08:18:41.563Z,1440.00
2023-08-29T08:19:41.553Z,1633.00
2023-08-29T08:20:41.589Z,1848.00
2023-08-29T08:21:41.531Z,2222.00
2023-08-29T08:22:41.524Z,2286.00
2023-08-29T08:23:41.520Z,2166.00
2023-08-29T08:24:41.516Z,2122.00
2023-08-29T08:26:41.483Z,2238.00
2023-08-29T08:27:41.775Z,2325.00
2023-08-29T08:28:41.440Z,2423.00
2023-08-29T08:29:44.462Z,2584.00
2023-08-29T08:31:41.481Z,2906.00
2023-08-29T08:32:41.442Z,3175.00
2023-08-29T08:33:41.445Z,3250.00
2023-08-29T08:34:41.424Z,3180.00
2023-08-29T08:35:55.617Z,3067.00
2023-08-29T08:36:42.400Z,2861.00
2023-08-29T08:37:41.405Z,2714.00
2023-08-29T08:38:41.377Z,2830.00
2023-08-29T08:39:41.354Z,2919.00
2023-08-29T08:40:41.346Z,3061.00
2023-08-29T08:41:41.322Z,3416.00
2023-08-29T08:42:41.512Z,3244.00
2023-08-29T08:43:41.323Z,3839.00
2023-08-29T08:44:44.385Z,4144.00
2023-08-29T08:45:41.304Z,4516.00
2023-08-29T08:47:41.326Z,5368.00
2023-08-29T08:48:41.252Z,5701.00
2023-08-29T08:49:41.228Z,6094.00
2023-08-29T08:50:41.245Z,6767.00
2023-08-29T08:51:41.223Z,7387.00
2023-08-29T08:52:41.202Z,7876.00
2023-08-29T08:53:41.238Z,8320.00
2023-08-29T08:54:41.170Z,8289.00
2023-08-29T08:55:41.156Z,8270.00
2023-08-29T08:56:41.169Z,8491.00
2023-08-29T08:57:41.148Z,8675.00
2023-08-29T08:59:44.125Z,9401.00
2023-08-29T09:00:41.121Z,9510.00
2023-08-29T09:01:41.174Z,9895.00
2023-08-29T09:02:41.199Z,9959.00
2023-08-29T09:03:41.137Z,9601.00
2023-08-29T09:04:41.059Z,8844.00
2023-08-29T09:05:41.062Z,8140.00
2023-08-29T09:06:41.043Z,7036.00
2023-08-29T09:07:41.185Z,6089.00
2023-08-29T09:08:41.044Z,5509.00
2023-08-29T09:09:41.019Z,4931.00
2023-08-29T09:10:41.052Z,4398.00
2023-08-29T09:11:49.505Z,4935.00
2023-08-29T09:12:41.011Z,4964.00
2023-08-29T09:13:40.994Z,4249.00
2023-08-29T09:14:43.965Z,3650.00
2023-08-29T09:15:40.985Z,3329.00
2023-08-29T09:16:40.957Z,3224.00
2023-08-29T09:17:40.981Z,3039.00
2023-08-29T09:18:40.926Z,3205.00
2023-08-29T09:19:40.953Z,3551.00
2023-08-29T09:20:40.924Z,3810.00
2023-08-29T09:22:40.924Z,4021.00
2023-08-29T09:23:40.937Z,3969.00
2023-08-29T09:25:40.862Z,3483.00
2023-08-29T09:26:40.850Z,3655.00
2023-08-29T09:27:40.925Z,4130.00
2023-08-29T09:28:40.840Z,4623.00
2023-08-29T09:29:43.826Z,5726.00
2023-08-29T09:30:40.795Z,7375.00
2023-08-29T09:31:40.860Z,8484.00
2023-08-29T09:32:41.111Z,8742.00
2023-08-29T09:33:40.785Z,8754.00
2023-08-29T09:34:40.762Z,8688.00
2023-08-29T09:35:40.744Z,8121.00
2023-08-29T09:36:40.729Z,7835.00
2023-08-29T09:37:40.732Z,7639.00
2023-08-29T09:38:40.728Z,6985.00
2023-08-29T09:39:40.712Z,6858.00
2023-08-29T09:40:44.346Z,6629.00
2023-08-29T09:41:40.678Z,6333.00
2023-08-29T09:42:40.672Z,6127.00
2023-08-29T09:43:40.675Z,5721.00
2023-08-29T09:44:43.665Z,5343.00
2023-08-29T09:45:40.668Z,5486.00
2023-08-29T09:46:40.632Z,5866.00
2023-08-29T09:47:40.639Z,6436.00
2023-08-29T09:48:40.652Z,6910.00
2023-08-29T09:50:40.573Z,7660.00
2023-08-29T09:51:40.587Z,7657.00
2023-08-29T09:52:40.569Z,7548.00
2023-08-29T09:53:40.556Z,7367.00
2023-08-29T09:54:40.554Z,7106.00
2023-08-29T09:55:40.592Z,6874.00
2023-08-29T09:56:40.547Z,6880.00
2023-08-29T09:57:40.559Z,7262.00
2023-08-29T09:58:40.501Z,7705.00
2023-08-29T09:59:43.512Z,8086.00
2023-08-29T10:00:40.501Z,8301.00
2023-08-29T10:01:40.481Z,8272.00
2023-08-29T10:02:40.663Z,8227.00
2023-08-29T10:03:40.463Z,8220.00
2023-08-29T10:05:40.452Z,8063.00
2023-08-29T10:06:40.413Z,7748.00
2023-08-29T10:07:40.422Z,7186.00
2023-08-29T10:08:40.391Z,6536.00
2023-08-29T10:09:40.403Z,6030.00
2023-08-29T10:10:40.378Z,5590.00
2023-08-29T10:11:53.396Z,5307.00
2023-08-29T10:13:40.418Z,4900.00
2023-08-29T10:14:43.328Z,4573.00
2023-08-29T10:15:40.322Z,4349.00
2023-08-29T10:16:40.330Z,4189.00
2023-08-29T10:17:41.427Z,4279.00
2023-08-29T10:18:41.287Z,4333.00
2023-08-29T10:20:40.276Z,4616.00
2023-08-29T10:21:40.282Z,4673.00
2023-08-29T10:22:45.712Z,4654.00
2023-08-29T10:23:40.269Z,4611.00
2023-08-29T10:24:40.235Z,4592.00
2023-08-29T10:25:40.328Z,4604.00
2023-08-29T10:26:40.234Z,4577.00
2023-08-29T10:27:40.228Z,4442.00
2023-08-29T10:28:40.225Z,4286.00
2023-08-29T10:29:43.196Z,4204.00
2023-08-29T10:30:40.191Z,4206.00
2023-08-29T10:31:40.197Z,4259.00
2023-08-29T10:32:40.206Z,4308.00
2023-08-29T10:33:40.144Z,4228.00
2023-08-29T10:34:40.132Z,4126.00
2023-08-29T10:35:40.160Z,4073.00
2023-08-29T10:36:40.110Z,4101.00
2023-08-29T10:37:40.119Z,4285.00
2023-08-29T10:38:40.117Z,4281.00
2023-08-29T10:39:40.080Z,4403.00
2023-08-29T10:40:40.097Z,4470.00
2023-08-29T10:41:40.060Z,4596.00
2023-08-29T10:42:40.069Z,4673.00
2023-08-29T10:43:40.037Z,4771.00
2023-08-29T10:44:45.370Z,4896.00
2023-08-29T10:46:40.072Z,5106.00
2023-08-29T10:47:40.015Z,5013.00
2023-08-29T10:48:40.018Z,4799.00
2023-08-29T10:49:39.974Z,4730.00
2023-08-29T10:51:39.971Z,5004.00
2023-08-29T10:52:40.031Z,5183.00
2023-08-29T10:53:40.013Z,5283.00
2023-08-29T10:54:39.956Z,5389.00
2023-08-29T10:55:39.915Z,5343.00
2023-08-29T10:56:39.936Z,5178.00
2023-08-29T10:57:39.936Z,4996.00
2023-08-29T10:58:39.911Z,4813.00
2023-08-29T10:59:43.860Z,4804.00
2023-08-29T11:01:39.859Z,5204.00
2023-08-29T11:02:39.860Z,5447.00
2023-08-29T11:03:39.864Z,5726.00
2023-08-29T11:04:54.013Z,5743.00
2023-08-29T11:05:39.851Z,5633.00
2023-08-29T11:06:39.803Z,5417.00
2023-08-29T11:07:39.807Z,5194.00
2023-08-29T11:08:39.800Z,5100.00
2023-08-29T11:09:39.771Z,5072.00
2023-08-29T11:10:39.798Z,4999.00
2023-08-29T11:11:39.789Z,4874.00
2023-08-29T11:12:39.734Z,4713.00
2023-08-29T11:13:39.748Z,4558.00
2023-08-29T11:14:42.716Z,4547.00
2023-08-29T11:15:39.709Z,4617.00
2023-08-29T11:16:39.760Z,4706.00
2023-08-29T11:17:39.712Z,4820.00
2023-08-29T11:19:39.679Z,5381.00
2023-08-29T11:20:39.670Z,5598.00
2023-08-29T11:21:39.671Z,5636.00
2023-08-29T11:22:39.666Z,5540.00
2023-08-29T11:23:40.589Z,5377.00
2023-08-29T11:24:39.616Z,5317.00
2023-08-29T11:25:39.617Z,5368.00
2023-08-29T11:26:39.646Z,5370.00
2023-08-29T11:27:39.604Z,5477.00
2023-08-29T11:28:39.581Z,5594.00
2023-08-29T11:29:50.672Z,5765.00
2023-08-29T11:30:44.516Z,5908.00
2023-08-29T11:31:39.614Z,6003.00
2023-08-29T11:32:39.592Z,6102.00
2023-08-29T11:33:39.543Z,6167.00
2023-08-29T11:34:39.506Z,6054.00
2023-08-29T11:35:39.575Z,5914.00
2023-08-29T11:36:39.496Z,5920.00
2023-08-29T11:37:39.502Z,6097.00
2023-08-29T11:38:39.480Z,6437.00
2023-08-29T11:39:39.506Z,6835.00
2023-08-29T11:40:49.629Z,7113.00
2023-08-29T11:41:43.905Z,7002.00
2023-08-29T11:42:56.316Z,7034.00
2023-08-29T11:44:17.091Z,6720.00
2023-08-29T11:45:06.337Z,7182.00
2023-08-29T11:45:46.793Z,7322.00
2023-08-29T11:46:39.449Z,6734.00
2023-08-29T11:47:39.427Z,6034.00
2023-08-29T11:48:39.362Z,5752.00
2023-08-29T11:49:39.356Z,5866.00
2023-08-29T11:50:39.359Z,6162.00
2023-08-29T11:51:39.395Z,6017.00
2023-08-29T11:52:39.358Z,5612.00
2023-08-29T11:53:39.334Z,5122.00
2023-08-29T11:54:39.345Z,4976.00
2023-08-29T11:55:40.246Z,4882.00
2023-08-29T11:56:39.297Z,4588.00
2023-08-29T11:57:39.280Z,4442.00
2023-08-29T11:59:42.236Z,4071.00
2023-08-29T12:00:39.261Z,3720.00
2023-08-29T12:02:39.243Z,3216.00
2023-08-29T12:03:39.291Z,3229.00
2023-08-29T12:04:39.184Z,3711.00
2023-08-29T12:05:39.201Z,3992.00
2023-08-29T12:06:39.172Z,4184.00
2023-08-29T12:07:39.164Z,4130.00
2023-08-29T12:08:39.182Z,4735.00
2023-08-29T12:09:39.210Z,4903.00
2023-08-29T12:10:39.149Z,4398.00
2023-08-29T12:11:39.117Z,4072.00
2023-08-29T12:12:39.139Z,4624.00
2023-08-29T12:13:39.097Z,5261.00
2023-08-29T12:14:42.149Z,5403.00
2023-08-29T12:15:43.792Z,5732.00
2023-08-29T12:16:39.110Z,5880.00
2023-08-29T12:17:39.093Z,5961.00
2023-08-29T12:18:39.073Z,5896.00
2023-08-29T12:19:39.059Z,5857.00
2023-08-29T12:20:39.045Z,5935.00
2023-08-29T12:21:39.037Z,5619.00
2023-08-29T12:22:39.002Z,5975.00
2023-08-29T12:23:39.021Z,6555.00
2023-08-29T12:24:39.000Z,6932.00
2023-08-29T12:25:39.059Z,7019.00
2023-08-29T12:26:38.971Z,7112.00
2023-08-29T12:27:38.988Z,7022.00
2023-08-29T12:28:38.941Z,7131.00
2023-08-29T12:29:41.949Z,7381.00
2023-08-29T12:30:39.054Z,7504.00
2023-08-29T12:31:38.917Z,7226.00
2023-08-29T12:32:39.000Z,6883.00
2023-08-29T12:33:44.094Z,6636.00
2023-08-29T12:34:38.902Z,6382.00
2023-08-29T12:35:38.886Z,6011.00
2023-08-29T12:36:38.863Z,6350.00
2023-08-29T12:37:39.810Z,6738.00
2023-08-29T12:38:38.871Z,7180.00
2023-08-29T12:39:38.869Z,7636.00
2023-08-29T12:40:38.873Z,8269.00
2023-08-29T12:43:35.609Z,9335.00
2023-08-29T12:44:35.451Z,9158.00
2023-08-29T12:45:48.623Z,9752.00
2023-08-29T13:01:37.146Z,5251.00
2023-08-29T13:03:35.245Z,5192.00
2023-08-29T13:04:35.161Z,4907.00
2023-08-29T13:05:35.150Z,4752.00
2023-08-29T13:06:35.141Z,4776.00
2023-08-29T13:07:35.235Z,5131.00
2023-08-29T13:08:35.133Z,5705.00
2023-08-29T13:09:38.029Z,6063.00
2023-08-29T13:10:35.108Z,6088.00
2023-08-29T13:11:35.084Z,6229.00
2023-08-29T13:12:35.091Z,6641.00
2023-08-29T13:13:35.140Z,6493.00
2023-08-29T13:14:39.633Z,6236.00
2023-08-29T13:16:36.056Z,6509.00
2023-08-29T13:17:35.081Z,6018.00
2023-08-29T13:18:35.049Z,5356.00
2023-08-29T13:19:34.990Z,4786.00
2023-08-29T13:20:35.002Z,4469.00
2023-08-29T13:21:34.980Z,4166.00
2023-08-29T13:24:03.693Z,2497.00
2023-08-29T13:26:29.369Z,1871.00
2023-08-29T13:29:03.407Z,1495.00
2023-08-29T13:31:27.314Z,1542.00
2023-08-29T13:34:28.378Z,1652.00
2023-08-29T13:37:08.770Z,1888.00
2023-08-29T13:39:48.494Z,2190.00
2023-08-29T13:42:16.062Z,2487.00
2023-08-29T13:44:29.637Z,2749.00
2023-08-29T13:46:51.310Z,2971.00
2023-08-29T13:48:09.212Z,2840.00
2023-08-29T13:48:51.299Z,2969.00
2023-08-29T13:49:51.276Z,3037.00
2023-08-29T13:50:51.264Z,3147.00
2023-08-29T13:51:51.275Z,3195.00
2023-08-29T13:52:51.263Z,3257.00
2023-08-29T13:53:51.310Z,3292.00
2023-08-29T13:54:51.285Z,3316.00
2023-08-29T13:55:51.225Z,3294.00
2023-08-29T13:56:51.224Z,3315.00
2023-08-29T13:57:51.202Z,3348.00
2023-08-29T13:58:51.204Z,3381.00
2023-08-29T13:59:54.179Z,3431.00
2023-08-29T14:00:51.256Z,3450.00
2023-08-29T14:01:51.165Z,3488.00
2023-08-29T14:02:51.188Z,3488.00
2023-08-29T14:03:51.240Z,3492.00
2023-08-29T14:04:51.114Z,3432.00
2023-08-29T14:05:51.095Z,3411.00
2023-08-29T14:06:51.106Z,3443.00
2023-08-29T14:07:51.138Z,3496.00
2023-08-29T14:08:51.086Z,3608.00
2023-08-29T14:09:51.091Z,3815.00
2023-08-29T14:10:51.067Z,4005.00
2023-08-29T14:11:51.055Z,4242.00
2023-08-29T14:12:51.023Z,4551.00
2023-08-29T14:13:51.034Z,4790.00
2023-08-29T14:14:54.017Z,5008.00
2023-08-29T14:16:50.988Z,5287.00
2023-08-29T14:17:51.048Z,5408.00
2023-08-29T14:18:51.055Z,5442.00
2023-08-29T14:19:50.959Z,5450.00
2023-08-29T14:20:50.955Z,5468.00
2023-08-29T14:21:50.942Z,5483.00
2023-08-29T14:22:50.938Z,5468.00
2023-08-29T14:24:50.907Z,5405.00
2023-08-29T14:25:50.888Z,5390.00
2023-08-29T14:26:50.914Z,5363.00
2023-08-29T14:27:50.881Z,5331.00
2023-08-29T14:28:50.860Z,5292.00
2023-08-29T14:29:53.845Z,5310.00
2023-08-29T14:30:50.998Z,5294.00
2023-08-29T14:32:11.070Z,5250.00
2023-08-29T14:33:15.807Z,5158.00
2023-08-29T14:33:54.748Z,5225.00
2023-08-29T14:34:50.844Z,5321.00
2023-08-29T14:37:10.022Z,5639.00
2023-08-29T14:38:10.301Z,5558.00
2023-08-29T14:40:10.340Z,5667.00
2023-08-29T14:41:10.725Z,5663.00
2023-08-29T14:42:25.324Z,5755.00
2023-08-29T14:43:09.705Z,5768.00
2023-08-29T14:44:15.860Z,5764.00
2023-08-29T14:45:13.251Z,5851.00
2023-08-29T14:46:09.663Z,6005.00
2023-08-29T14:47:11.407Z,6032.00
2023-08-29T14:50:15.233Z,5714.00
2023-08-29T14:51:14.823Z,5751.00
2023-08-29T14:52:14.591Z,5773.00
2023-08-29T14:53:25.201Z,5735.00
2023-08-29T14:54:17.393Z,5685.00
2023-08-29T14:55:36.827Z,5597.00
2023-08-29T14:56:14.529Z,5488.00
2023-08-29T14:57:14.750Z,5376.00
2023-08-29T14:58:14.659Z,5266.00
2023-08-29T14:59:14.535Z,5191.00
2023-08-29T15:00:15.315Z,5163.00
2023-08-29T15:01:16.522Z,5149.00
2023-08-29T15:02:17.737Z,5189.00
2023-08-29T15:25:56.949Z,5291.00
2023-08-29T15:26:56.910Z,5319.00
2023-08-29T15:27:57.048Z,5263.00
2023-08-29T15:28:56.968Z,5269.00
2023-08-29T15:29:58.576Z,5281.00
2023-08-29T15:43:00.623Z,5351.00
2023-08-29T15:44:00.621Z,5349.00
2023-08-29T15:47:47.033Z,5231.00
2023-08-29T15:48:52.195Z,5287.00
2023-08-29T15:49:46.939Z,5259.00
2023-08-29T15:50:47.005Z,5204.00
2023-08-29T15:51:48.458Z,5143.00
2023-08-29T15:52:46.892Z,5090.00
2023-08-29T15:53:54.483Z,5024.00
2023-08-29T15:54:46.777Z,4976.00
2023-08-29T15:55:46.769Z,4951.00
2023-08-29T15:56:46.763Z,4952.00
2023-08-29T15:57:46.732Z,4929.00
2023-08-29T15:58:51.779Z,4944.00
2023-08-29T15:59:46.725Z,4930.00
2023-08-29T16:00:49.700Z,4948.00
2023-08-29T16:01:46.697Z,4929.00
2023-08-29T16:02:46.820Z,4918.00
2023-08-29T16:03:46.780Z,4895.00
2023-08-29T16:04:46.843Z,4877.00
2023-08-29T16:05:46.642Z,4860.00
2023-08-29T16:06:46.655Z,4832.00
2023-08-29T16:07:46.644Z,4815.00
2023-08-29T16:08:46.638Z,4779.00
2023-08-29T16:09:46.630Z,4738.00
2023-08-29T16:10:46.592Z,4718.00
2023-08-29T16:11:46.619Z,4685.00
2023-08-29T16:13:46.584Z,4628.00
2023-08-29T16:15:49.552Z,4618.00
2023-08-29T16:16:46.545Z,4615.00
2023-08-29T16:17:46.586Z,4625.00
2023-08-29T16:18:46.527Z,4612.00
2023-08-29T16:19:46.546Z,4587.00
2023-08-29T16:20:46.597Z,4577.00
2023-08-29T16:21:46.499Z,4534.00
2023-08-29T16:22:46.473Z,4497.00
2023-08-29T16:23:46.695Z,4410.00
2023-08-29T16:24:46.473Z,4373.00
2023-08-29T16:25:46.452Z,4339.00
2023-08-29T16:26:46.456Z,4339.00
2023-08-29T16:27:46.446Z,4332.00
2023-08-29T16:28:46.442Z,4356.00
2023-08-29T16:29:46.415Z,4383.00
2023-08-29T16:30:49.431Z,4395.00
2023-08-29T16:31:46.408Z,4386.00
2023-08-29T16:32:46.433Z,4392.00
2023-08-29T16:33:46.389Z,4365.00
2023-08-29T16:34:46.374Z,4343.00
2023-08-29T16:35:46.344Z,4312.00
2023-08-29T16:36:46.323Z,4305.00
2023-08-29T16:37:47.277Z,4261.00
2023-08-29T16:38:47.287Z,4182.00
2023-08-29T16:39:46.296Z,4089.00